Time;durP1;ratioP1;P1;durP2;ratioP2;P2;SDS_P1;SDS_P2;PMS_P1;PMS_P2;Temp;Humidity;BMP_temperature;BMP_pressure;BME280_temperature;BME280_humidity;BME280_pressure;Samples;Min_cycle;Max_cycle;Signal;HPM_P1;HPM_P2
2023/11/29 00:01:33;;;;;;;;;64.00;48.00;;;;;3.07;100.00;97789.97;6310590;20;2874302;-45
2023/11/29 00:04:03;;;;;;;;;65.33;47.67;;;;;3.01;100.00;97788.56;6312999;20;2882756;-45
2023/11/29 00:06:33;;;;;;;;;66.67;50.33;;;;;3.04;100.00;97783.06;6309941;20;2870132;-48
2023/11/29 00:09:02;;;;;;;;;56.50;45.50;;;;;2.80;100.00;97777.47;6310822;20;2853406;-44
2023/11/29 00:11:34;;;;;;;;;62.50;47.00;;;;;2.94;100.00;97786.38;6278610;20;2866984;-46
2023/11/29 00:14:03;;;;;;;;;65.00;49.00;;;;;2.98;100.00;97794.06;6279760;20;2865955;-45
2023/11/29 00:16:32;;;;;;;;;61.50;43.00;;;;;3.04;100.00;97806.09;6278889;20;2865962;-44
2023/11/29 00:19:01;;;;;;;;;38.00;34.50;;;;;3.01;100.00;97808.94;6278146;20;2856495;-48
2023/11/29 00:21:32;;;;;;;;;63.67;46.00;;;;;2.78;100.00;97819.13;6279001;20;2877317;-48
2023/11/29 00:24:01;;;;;;;;;57.00;47.50;;;;;2.60;100.00;97820.22;6309758;20;2858610;-45
2023/11/29 00:26:30;;;;;;;;;64.50;48.00;;;;;2.46;100.00;97834.28;6280316;20;2873219;-44
2023/11/29 00:28:59;;;;;;;;;61.50;46.50;;;;;2.38;100.00;97842.66;6279789;20;2854449;-47
2023/11/29 00:31:28;;;;;;;;;60.00;50.50;;;;;2.37;100.00;97861.28;6277859;20;2870197;-46
2023/11/29 00:33:58;;;;;;;;;59.67;47.33;;;;;2.35;100.00;97856.09;6277931;20;2869258;-45
2023/11/29 00:36:27;;;;;;;;;50.00;39.50;;;;;2.23;100.00;97864.72;6309628;20;2850310;-44
2023/11/29 00:38:56;;;;;;;;;54.00;44.00;;;;;2.07;100.00;97874.50;6280705;20;2863929;-45
2023/11/29 00:41:24;;;;;;;;;59.00;47.00;;;;;2.09;100.00;97877.91;6273148;20;2502366;-44
2023/11/29 00:43:53;;;;;;;;;60.50;47.00;;;;;2.03;100.00;97886.16;6279221;20;2853427;-45
2023/11/29 00:46:22;;;;;;;;;62.50;49.50;;;;;1.85;100.00;97888.91;6279288;20;2860684;-44
2023/11/29 00:48:51;;;;;;;;;62.00;48.50;;;;;1.82;100.00;97894.38;6279841;20;2866120;-44
2023/11/29 00:51:21;;;;;;;;;67.33;48.33;;;;;1.73;100.00;97884.28;6278218;20;3626285;-46
2023/11/29 00:53:50;;;;;;;;;67.00;46.00;;;;;1.80;100.00;97877.72;6310524;20;2874318;-46
2023/11/29 00:56:19;;;;;;;;;60.00;47.00;;;;;1.63;100.00;97870.72;6276242;20;2874288;-44
2023/11/29 00:58:47;;;;;;;;;49.00;44.00;;;;;1.77;100.00;97880.56;6311200;20;2493162;-44
2023/11/29 01:01:17;;;;;;;;;60.00;48.00;;;;;1.65;100.00;97890.00;6282939;20;2860763;-45
2023/11/29 01:03:46;;;;;;;;;65.50;53.00;;;;;1.53;100.00;97891.53;6282705;20;2869079;-45
2023/11/29 01:06:15;;;;;;;;;56.00;44.00;;;;;1.65;100.00;97899.72;6283615;20;2878510;-44
2023/11/29 01:08:45;;;;;;;;;69.67;49.00;;;;;1.53;100.00;97909.19;6283839;20;2874309;-45
2023/11/29 01:11:14;;;;;;;;;61.00;46.00;;;;;1.57;100.00;97928.38;6315942;20;2864908;-47
2023/11/29 01:13:43;;;;;;;;;64.50;48.50;;;;;1.61;100.00;97944.03;6284920;20;2861756;-48
2023/11/29 01:16:14;;;;;;;;;62.00;48.00;;;;;1.50;100.00;97939.31;6281127;20;2492984;-45
2023/11/29 01:18:44;;;;;;;;;68.00;49.33;;;;;1.42;100.00;97935.34;6283914;20;2883707;-48
2023/11/29 01:21:17;;;;;;;;;68.00;48.33;;;;;1.33;100.00;97941.97;6313869;20;2882784;-46
2023/11/29 01:23:56;;;;;;;;;66.00;51.00;;;;;1.38;100.00;97939.94;6313261;20;2865947;-45
2023/11/29 01:26:25;;;;;;;;;67.00;53.00;;;;;1.43;100.00;97943.19;6282060;20;2858694;-45
2023/11/29 01:28:53;;;;;;;;;60.00;45.50;;;;;1.39;100.00;97954.00;6280037;20;2500421;-45
2023/11/29 01:31:25;;;;;;;;;65.50;51.00;;;;;1.29;100.00;97948.34;6284286;20;2872148;-45
2023/11/29 01:33:55;;;;;;;;;44.00;33.50;;;;;1.24;100.00;97958.31;6281150;20;2500256;-43
2023/11/29 01:36:25;;;;;;;;;55.33;41.33;;;;;1.19;100.00;97961.19;6285177;20;2853456;-42
2023/11/29 01:38:54;;;;;;;;;61.00;46.50;;;;;1.20;100.00;97973.47;6314937;20;2856521;-42
2023/11/29 01:41:22;;;;;;;;;58.50;48.00;;;;;1.22;100.00;97982.19;6282448;20;2852422;-43
2023/11/29 01:43:50;;;;;;;;;54.00;45.50;;;;;1.24;100.00;97987.41;6278661;20;2497232;-42
2023/11/29 01:46:20;;;;;;;;;63.00;44.50;;;;;1.47;100.00;97989.69;6280522;20;2870069;-42
2023/11/29 01:48:49;;;;;;;;;61.50;47.50;;;;;1.22;100.00;97995.41;6281003;20;2861773;-42
2023/11/29 01:51:18;;;;;;;;;60.00;45.00;;;;;1.16;100.00;97992.19;6281238;20;2859692;-43
2023/11/29 01:53:49;;;;;;;;;54.50;46.50;;;;;1.26;100.00;97993.44;6282648;20;2845165;-46
2023/11/29 01:56:21;;;;;;;;;63.50;43.50;;;;;1.34;100.00;97991.25;6278709;20;2886787;-45
2023/11/29 01:58:51;;;;;;;;;60.67;45.00;;;;;1.38;100.00;98003.41;6282328;20;2861749;-41
2023/11/29 02:01:20;;;;;;;;;56.50;44.50;;;;;1.13;100.00;98002.94;6311317;20;2850284;-43
2023/11/29 02:03:49;;;;;;;;;55.50;45.00;;;;;1.19;100.00;98014.06;6282745;20;2858641;-43
2023/11/29 02:06:19;;;;;;;;;61.00;42.50;;;;;1.05;100.00;98017.41;6283601;20;2873233;-42
2023/11/29 02:08:49;;;;;;;;;58.00;48.33;;;;;1.16;100.00;98024.78;6280364;20;2862832;-42
2023/11/29 02:11:20;;;;;;;;;52.67;40.67;;;;;1.17;100.00;98030.94;6310673;20;2866099;-43
2023/11/29 02:13:49;;;;;;;;;39.50;38.00;;;;;1.17;100.00;98036.22;6312739;20;2856513;-43
2023/11/29 02:16:19;;;;;;;;;49.00;42.67;;;;;1.10;100.00;98033.00;6282424;20;2877516;-43
2023/11/29 02:18:49;;;;;;;;;56.00;44.00;;;;;1.01;100.00;98042.25;6315669;20;3616944;-43
2023/11/29 02:21:23;;;;;;;;;55.00;41.33;;;;;0.86;100.00;98049.16;6312089;20;2878459;-43
2023/11/29 02:24:05;;;;;;;;;63.50;46.50;;;;;0.91;100.00;98051.56;6310861;20;2864893;-42
2023/11/29 02:26:34;;;;;;;;;48.00;36.00;;;;;0.93;100.00;98044.44;6280007;20;2859677;-45
2023/11/29 02:29:04;;;;;;;;;59.33;43.67;;;;;0.87;100.00;98042.09;6280559;20;2859659;-43
2023/11/29 02:31:33;;;;;;;;;52.00;40.00;;;;;0.83;100.00;98053.72;6313256;20;2872293;-44
2023/11/29 02:34:03;;;;;;;;;52.33;42.33;;;;;0.91;100.00;98053.34;6315091;20;2858647;-43
2023/11/29 02:36:33;;;;;;;;;54.00;44.00;;;;;0.79;100.00;98060.97;6311816;20;2855500;-45
2023/11/29 02:39:03;;;;;;;;;53.67;43.00;;;;;0.91;100.00;98069.22;6312807;20;2877525;-43
2023/11/29 02:41:39;;;;;;;;;58.00;45.00;;;;;0.82;100.00;98079.28;6310873;20;2875284;-44
2023/11/29 02:44:08;;;;;;;;;42.00;40.50;;;;;0.95;100.00;98084.84;6312044;20;2854595;-44
2023/11/29 02:46:37;;;;;;;;;53.00;39.50;;;;;0.85;100.00;98094.16;6277340;20;2873315;-47
2023/11/29 02:49:06;;;;;;;;;42.00;38.50;;;;;0.84;100.00;98097.69;6281341;20;2871108;-46
2023/11/29 02:51:35;;;;;;;;;46.00;36.50;;;;;0.80;100.00;98096.16;6278053;20;2873966;-48
2023/11/29 02:54:05;;;;;;;;;50.33;39.33;;;;;0.77;100.00;98099.78;6281848;20;2870067;-46
2023/11/29 02:56:34;;;;;;;;;46.33;36.00;;;;;0.68;100.00;98099.38;6311851;20;2871122;-53
2023/11/29 02:59:03;;;;;;;;;47.50;34.50;;;;;0.72;100.00;98103.59;6312919;20;2863892;-55
2023/11/29 03:01:32;;;;;;;;;54.00;44.00;;;;;0.74;100.00;98104.34;6280036;20;2861810;-52
2023/11/29 03:04:02;;;;;;;;;49.00;40.00;;;;;0.59;100.00;98108.59;6282729;20;2872334;-54
2023/11/29 03:06:32;;;;;;;;;50.67;39.00;;;;;0.60;100.00;98111.13;6311969;20;2877475;-42
2023/11/29 03:09:01;;;;;;;;;44.00;40.00;;;;;0.56;100.00;98099.03;6313170;20;2866923;-43
2023/11/29 03:11:30;;;;;;;;;42.50;33.50;;;;;0.57;100.00;98095.44;6281951;20;2870058;-44
2023/11/29 03:13:59;;;;;;;;;44.00;34.00;;;;;0.65;100.00;98109.13;6280011;20;2869098;-44
2023/11/29 03:16:28;;;;;;;;;33.00;30.50;;;;;0.73;100.00;98108.78;6283639;20;2850444;-45
2023/11/29 03:18:56;;;;;;;;;46.50;37.00;;;;;0.88;100.00;98112.50;6278073;20;2500382;-46
2023/11/29 03:21:25;;;;;;;;;39.00;22.00;;;;;0.78;100.00;98124.41;6278511;20;2500354;-43
2023/11/29 03:23:55;;;;;;;;;46.00;39.67;;;;;0.73;100.00;98136.97;6280569;20;2878625;-44
2023/11/29 03:26:24;;;;;;;;;39.50;31.00;;;;;0.59;100.00;98143.75;6312345;20;2851322;-44
2023/11/29 03:28:53;;;;;;;;;46.33;40.33;;;;;0.48;100.00;98146.03;6277986;20;2867009;-44
2023/11/29 03:31:23;;;;;;;;;53.00;39.33;;;;;0.62;100.00;98156.81;6310398;20;2884751;-43
2023/11/29 03:33:53;;;;;;;;;55.33;42.33;;;;;0.50;100.00;98157.41;6311895;20;2871286;-43
2023/11/29 03:36:22;;;;;;;;;58.50;47.50;;;;;0.36;100.00;98167.72;6313039;20;2845068;-44
2023/11/29 03:38:51;;;;;;;;;64.50;46.00;;;;;0.51;100.00;98169.66;6279067;20;2870078;-44
2023/11/29 03:41:20;;;;;;;;;57.67;40.67;;;;;0.40;100.00;98164.88;6280223;20;3635718;-44
2023/11/29 03:43:50;;;;;;;;;57.33;44.33;;;;;0.43;100.00;98166.53;6310282;20;2874275;-43
2023/11/29 03:46:19;;;;;;;;;45.50;41.50;;;;;0.30;100.00;98153.00;6309417;20;2863862;-43
2023/11/29 03:48:47;;;;;;;;;50.00;43.00;;;;;0.44;100.00;98155.03;6277933;20;2488904;-42
2023/11/29 03:51:15;;;;;;;;;43.00;38.00;;;;;0.31;100.00;98157.34;6276820;20;2504400;-44
2023/11/29 03:53:45;;;;;;;;;48.67;36.33;;;;;0.33;100.00;98157.28;6279246;20;2880566;-45
2023/11/29 03:56:15;;;;;;;;;43.33;29.00;;;;;0.29;100.00;98168.91;6311420;20;2882174;-43
2023/11/29 03:58:44;;;;;;;;;57.33;41.67;;;;;0.32;100.00;98172.28;6308484;20;3633610;-44
2023/11/29 04:01:13;;;;;;;;;49.50;42.50;;;;;0.10;100.00;98182.06;6309970;20;2867139;-42
2023/11/29 04:03:42;;;;;;;;;48.00;37.50;;;;;0.31;100.00;98189.03;6279841;20;2867976;-43
2023/11/29 04:06:23;;;;;;;;;46.00;39.50;;;;;0.13;100.00;98200.38;6277797;20;2867124;-45
2023/11/29 04:08:53;;;;;;;;;45.50;38.50;;;;;0.06;100.00;98210.38;6274343;20;2866370;-44
2023/11/29 04:11:23;;;;;;;;;47.50;38.50;;;;;0.26;100.00;98219.19;6281870;20;2862794;-44
2023/11/29 04:13:52;;;;;;;;;56.50;38.00;;;;;0.32;100.00;98230.34;6277481;20;2884652;-43
2023/11/29 04:16:24;;;;;;;;;50.50;39.00;;;;;0.32;100.00;98237.41;6278069;20;2864833;-45
2023/11/29 04:18:54;;;;;;;;;65.00;44.33;;;;;0.32;100.00;98238.28;6278707;20;2874228;-44
2023/11/29 04:21:34;;;;;;;;;48.00;44.00;;;;;0.32;100.00;98237.41;6311870;20;2860823;-44
2023/11/29 04:24:04;;;;;;;;;52.00;42.00;;;;;0.69;100.00;98238.44;6278777;20;2858726;-43
2023/11/29 04:26:40;;;;;;;;;45.00;40.00;;;;;0.50;100.00;98241.91;6280924;20;2866022;-45
2023/11/29 04:29:11;;;;;;;;;54.00;37.67;;;;;0.68;99.59;98247.25;6279029;20;2885919;-43
2023/11/29 04:31:40;;;;;;;;;54.50;44.50;;;;;0.67;99.90;98245.56;6312281;20;2859782;-43
2023/11/29 04:34:09;;;;;;;;;47.50;42.50;;;;;0.69;99.02;98251.66;6283921;20;2865949;-45
2023/11/29 04:36:55;;;;;;;;;66.50;49.50;;;;;0.54;99.72;98256.66;6286312;20;2872239;-45
2023/11/29 04:39:24;;;;;;;;;59.00;44.50;;;;;0.60;99.07;98261.66;6285563;20;2875284;-45
2023/11/29 04:41:53;;;;;;;;;61.00;45.50;;;;;0.41;99.16;98261.63;6283789;20;2869042;-45
2023/11/29 04:44:22;;;;;;;;;52.33;37.33;;;;;0.57;98.99;98268.88;6281900;20;2877397;-49
2023/11/29 04:46:52;;;;;;;;;58.00;42.33;;;;;0.59;98.00;98267.88;6316569;20;3637863;-44
2023/11/29 04:49:22;;;;;;;;;53.67;42.67;;;;;0.58;98.22;98266.19;6316744;20;3632546;-45
2023/11/29 04:51:51;;;;;;;;;50.00;40.50;;;;;0.50;98.05;98270.06;6315807;20;2873189;-43
2023/11/29 04:54:20;;;;;;;;;49.67;42.67;;;;;0.50;98.90;98270.94;6281785;20;2879478;-43
2023/11/29 04:56:50;;;;;;;;;46.33;29.00;;;;;0.49;98.14;98277.13;6312910;20;2880549;-43
2023/11/29 04:59:19;;;;;;;;;45.50;28.50;;;;;0.39;98.40;98270.53;6312586;20;2873331;-45
2023/11/29 05:01:49;;;;;;;;;53.67;42.00;;;;;0.47;98.40;98284.25;6282189;20;2884774;-45
2023/11/29 05:04:17;;;;;;;;;39.50;30.50;;;;;0.41;98.74;98293.28;6311364;20;2500354;-44
2023/11/29 05:06:47;;;;;;;;;66.33;39.33;;;;;0.44;98.32;98289.66;6283521;20;2894118;-43
2023/11/29 05:09:16;;;;;;;;;53.00;44.00;;;;;0.45;97.93;98286.13;6316094;20;2860684;-44
2023/11/29 05:11:45;;;;;;;;;63.00;46.50;;;;;0.36;98.99;98286.50;6284487;20;2872164;-43
2023/11/29 05:14:14;;;;;;;;;65.50;47.50;;;;;0.22;99.25;98293.22;6283035;20;2862799;-45
2023/11/29 05:16:45;;;;;;;;;54.00;45.00;;;;;0.43;98.75;98299.38;6283566;20;2879526;-43
2023/11/29 05:19:15;;;;;;;;;54.67;42.00;;;;;0.28;98.93;98305.31;6316154;20;3633576;-43
2023/11/29 05:21:45;;;;;;;;;51.00;40.67;;;;;0.43;98.64;98309.09;6314418;20;2872183;-45
2023/11/29 05:24:14;;;;;;;;;46.00;34.00;;;;;0.28;98.36;98309.72;6313476;20;2866958;-44
2023/11/29 05:26:43;;;;;;;;;42.00;35.00;;;;;0.37;98.17;98314.59;6282701;20;2862777;-43
2023/11/29 05:29:11;;;;;;;;;50.50;41.50;;;;;0.26;98.79;98311.56;6280273;20;2500332;-43
2023/11/29 05:31:41;;;;;;;;;51.00;41.33;;;;;0.42;98.04;98323.19;6281773;20;3621122;-44
2023/11/29 05:34:10;;;;;;;;;60.00;44.33;;;;;0.46;98.32;98330.06;6312745;20;2863905;-45
2023/11/29 05:36:39;;;;;;;;;26.67;19.33;;;;;0.50;98.77;98330.78;6314870;20;3580514;-44
2023/11/29 05:39:09;;;;;;;;;44.50;42.00;;;;;0.71;98.10;98334.28;6314257;20;2840933;-45
2023/11/29 05:41:37;;;;;;;;;45.50;28.50;;;;;0.61;96.91;98329.41;6278958;20;2500279;-45
2023/11/29 05:44:06;;;;;;;;;48.00;41.00;;;;;0.56;96.44;98336.69;6281586;20;2808597;-46
2023/11/29 05:46:35;;;;;;;;;63.00;44.00;;;;;0.58;96.17;98334.84;6281517;20;2877369;-47
2023/11/29 05:49:05;;;;;;;;;52.33;38.67;;;;;0.62;96.59;98349.63;6280958;20;2880534;-45
2023/11/29 05:51:37;;;;;;;;;41.50;38.00;;;;;0.56;95.75;98351.66;6307893;20;2858713;-46
2023/11/29 05:54:07;;;;;;;;;53.00;41.00;;;;;0.62;96.80;98352.25;6284585;20;3625219;-46
2023/11/29 05:56:36;;;;;;;;;47.00;39.00;;;;;0.65;95.82;98352.13;6314314;20;2863787;-44
2023/11/29 05:59:05;;;;;;;;;47.00;35.50;;;;;0.60;95.65;98363.81;6285168;20;2874224;-48
2023/11/29 06:01:36;;;;;;;;;49.50;34.50;;;;;0.60;95.56;98366.44;6282152;20;2862812;-45
2023/11/29 06:04:06;;;;;;;;;49.00;40.50;;;;;0.79;94.93;98369.16;6281088;20;2871074;-45
2023/11/29 06:06:35;;;;;;;;;51.50;37.00;;;;;0.71;94.58;98371.28;6277905;20;2500264;-45
2023/11/29 06:09:07;;;;;;;;;53.00;40.00;;;;;0.58;96.36;98382.38;6281584;20;2869029;-47
2023/11/29 06:11:37;;;;;;;;;45.50;38.50;;;;;0.73;96.06;98393.19;6283895;20;2862812;-45
2023/11/29 06:14:06;;;;;;;;;45.00;38.00;;;;;0.76;96.14;98393.91;6282836;20;2860654;-46
2023/11/29 06:16:35;;;;;;;;;48.00;34.50;;;;;0.68;95.42;98408.38;6283748;20;2873899;-44
2023/11/29 06:19:04;;;;;;;;;39.50;31.50;;;;;0.42;96.99;98407.69;6283544;20;2854476;-45
2023/11/29 06:21:34;;;;;;;;;54.00;44.00;;;;;0.45;96.69;98415.50;6283297;20;2855492;-49
2023/11/29 06:24:02;;;;;;;;;54.00;43.50;;;;;0.84;97.00;98417.38;6278322;20;2500286;-46
2023/11/29 06:26:32;;;;;;;;;48.50;41.50;;;;;0.51;98.20;98417.03;6284015;20;2865885;-47
2023/11/29 06:29:03;;;;;;;;;55.00;42.00;;;;;0.59;96.21;98423.69;6281629;20;2885825;-45
2023/11/29 06:31:33;;;;;;;;;57.50;44.50;;;;;0.59;95.42;98436.03;6315629;20;2844052;-55
2023/11/29 06:34:02;;;;;;;;;51.00;42.50;;;;;0.38;97.02;98448.34;6283095;20;2881594;-54
2023/11/29 06:36:31;;;;;;;;;57.00;42.50;;;;;0.51;95.99;98457.47;6283607;20;2856527;-50
2023/11/29 06:39:04;;;;;;;;;48.00;40.00;;;;;0.52;95.36;98469.75;6281063;20;2867062;-55
2023/11/29 06:41:34;;;;;;;;;51.00;36.67;;;;;0.50;95.99;98473.38;6282324;20;2873346;-54
2023/11/29 06:44:04;;;;;;;;;56.00;42.00;;;;;0.41;95.13;98466.69;6312900;20;2879479;-50
2023/11/29 06:46:33;;;;;;;;;51.00;43.00;;;;;0.45;95.87;98470.94;6315254;20;2877399;-50
2023/11/29 06:49:03;;;;;;;;;56.67;41.33;;;;;0.49;95.47;98477.81;6282397;20;2864927;-53
2023/11/29 06:51:32;;;;;;;;;50.00;45.00;;;;;0.68;94.77;98485.84;6315079;20;2871148;-51
2023/11/29 06:54:02;;;;;;;;;49.00;39.00;;;;;0.55;94.92;98484.63;6282400;20;2878500;-52
2023/11/29 06:56:31;;;;;;;;;52.50;38.00;;;;;0.50;94.46;98487.47;6280862;20;2873194;-52
2023/11/29 06:59:04;;;;;;;;;54.00;42.33;;;;;0.49;94.73;98496.28;6282450;20;3629504;-54
2023/11/29 07:01:32;;;;;;;;;26.50;20.00;;;;;0.61;95.71;98506.38;6312275;20;2830523;-54
2023/11/29 07:04:03;;;;;;;;;68.33;53.67;;;;;0.84;95.33;98509.84;6282010;20;2886249;-55
2023/11/29 07:06:32;;;;;;;;;64.00;47.00;;;;;0.77;94.46;98519.81;6309529;20;2495104;-52
2023/11/29 07:09:05;;;;;;;;;68.00;54.00;;;;;0.86;94.33;98523.84;6281340;20;2870755;-41
2023/11/29 07:11:36;;;;;;;;;62.50;45.00;;;;;0.84;93.34;98528.34;6278805;20;2496130;-41
2023/11/29 07:14:06;;;;;;;;;71.00;49.67;;;;;1.02;95.26;98535.50;6283510;20;2888947;-44
2023/11/29 07:16:36;;;;;;;;;75.00;55.50;;;;;0.73;94.27;98539.34;6312616;20;3513272;-47
2023/11/29 07:19:06;;;;;;;;;55.33;43.00;;;;;0.68;94.64;98551.00;6311289;20;3609617;-44
2023/11/29 07:21:35;;;;;;;;;67.00;45.67;;;;;1.08;95.52;98553.78;6312447;20;3623142;-45
2023/11/29 07:24:05;;;;;;;;;58.00;41.00;;;;;0.87;93.57;98557.31;6311240;20;3634619;-45
2023/11/29 07:26:35;;;;;;;;;54.00;42.00;;;;;0.85;94.29;98565.28;6312186;20;2875360;-44
2023/11/29 07:29:06;;;;;;;;;57.67;39.67;;;;;0.76;93.50;98570.91;6312605;20;3641971;-47
2023/11/29 07:31:35;;;;;;;;;53.50;41.00;;;;;0.77;92.96;98572.66;6312796;20;2873247;-44
2023/11/29 07:34:05;;;;;;;;;50.00;41.33;;;;;1.00;92.99;98579.66;6278223;20;2856582;-44
2023/11/29 07:36:34;;;;;;;;;56.00;45.00;;;;;0.91;92.24;98585.31;6310672;20;2861783;-45
2023/11/29 07:39:05;;;;;;;;;50.00;40.00;;;;;0.93;92.31;98586.09;6282190;20;2873199;-46
2023/11/29 07:41:34;;;;;;;;;57.00;45.33;;;;;0.55;93.71;98593.75;6281255;20;2872277;-45
2023/11/29 07:44:05;;;;;;;;;47.67;41.33;;;;;0.60;93.77;98599.72;6312177;20;2876408;-48
2023/11/29 07:46:34;;;;;;;;;49.67;41.00;;;;;0.99;93.28;98603.50;6311383;20;2874321;-44
2023/11/29 07:49:04;;;;;;;;;61.67;43.67;;;;;0.90;93.24;98609.16;6310676;20;2884118;-45
2023/11/29 07:51:34;;;;;;;;;45.50;39.50;;;;;1.01;93.84;98607.81;6311414;20;2871139;-45
2023/11/29 07:54:04;;;;;;;;;59.67;43.33;;;;;1.08;92.07;98614.56;6281903;20;2865981;-44
2023/11/29 07:56:33;;;;;;;;;59.50;45.00;;;;;1.18;92.57;98622.97;6310471;20;2857584;-47
2023/11/29 07:59:03;;;;;;;;;55.00;44.00;;;;;1.10;92.99;98622.41;6280807;20;2854477;-46
2023/11/29 08:01:31;;;;;;;;;61.50;45.00;;;;;0.93;92.84;98624.91;6277496;20;2498236;-43
2023/11/29 08:04:00;;;;;;;;;55.00;43.33;;;;;0.97;93.87;98624.69;6282594;20;2882691;-43
2023/11/29 08:06:30;;;;;;;;;45.00;41.00;;;;;1.35;91.71;98627.56;6308708;20;2866899;-42
2023/11/29 08:09:00;;;;;;;;;58.00;45.00;;;;;1.12;92.20;98635.59;6281493;20;2839904;-42
2023/11/29 08:11:29;;;;;;;;;48.00;43.00;;;;;1.22;91.31;98636.94;6280508;20;2871597;-49
2023/11/29 08:14:02;;;;;;;;;51.33;37.67;;;;;1.39;91.08;98641.53;6281896;20;2889984;-48
2023/11/29 08:16:32;;;;;;;;;50.00;37.50;;;;;1.37;90.72;98652.19;6311247;20;2873202;-47
2023/11/29 08:19:02;;;;;;;;;58.67;41.33;;;;;1.36;90.64;98649.59;6281653;20;3637737;-47
2023/11/29 08:21:31;;;;;;;;;62.50;47.50;;;;;1.60;89.38;98659.13;6311410;20;2852494;-47
2023/11/29 08:24:00;;;;;;;;;41.50;34.50;;;;;1.26;91.25;98671.13;6278841;20;2853985;-46
2023/11/29 08:26:30;;;;;;;;;68.00;49.33;;;;;1.02;91.95;98672.94;6279201;20;2882660;-48
2023/11/29 08:29:00;;;;;;;;;68.67;48.00;;;;;1.23;91.17;98673.00;6311320;20;2891028;-45
2023/11/29 08:31:29;;;;;;;;;57.00;43.33;;;;;1.56;91.32;98677.88;6308561;20;2860692;-45
2023/11/29 08:33:58;;;;;;;;;45.00;38.00;;;;;1.22;91.30;98684.53;6311675;20;2855479;-48
2023/11/29 08:36:29;;;;;;;;;56.67;43.00;;;;;1.53;91.48;98686.81;6281734;20;3630623;-46
2023/11/29 08:38:57;;;;;;;;;48.00;42.50;;;;;1.62;89.18;98701.41;6310332;20;2871145;-45
2023/11/29 08:41:26;;;;;;;;;40.00;31.33;;;;;1.34;89.34;98699.88;6282044;20;3572548;-47
2023/11/29 08:43:56;;;;;;;;;54.67;43.00;;;;;1.45;89.73;98702.97;6280345;20;3621077;-46
2023/11/29 08:46:25;;;;;;;;;41.50;38.00;;;;;1.58;89.73;98713.03;6309598;20;2860755;-46
2023/11/29 08:48:55;;;;;;;;;44.00;41.50;;;;;1.15;90.58;98714.75;6282394;20;2852372;-45
2023/11/29 08:51:24;;;;;;;;;54.00;41.50;;;;;1.38;89.48;98721.78;6281952;20;2856525;-46
2023/11/29 08:53:54;;;;;;;;;59.00;44.00;;;;;1.47;90.90;98727.56;6282687;20;2859690;-44
2023/11/29 08:56:23;;;;;;;;;52.00;41.00;;;;;1.47;90.87;98722.25;6281930;20;2862819;-47
2023/11/29 08:58:53;;;;;;;;;50.33;41.67;;;;;1.79;90.00;98736.00;6280787;20;2850488;-45
2023/11/29 09:01:24;;;;;;;;;64.33;49.33;;;;;1.85;88.22;98735.72;6308992;20;2874269;-48
2023/11/29 09:03:53;;;;;;;;;58.00;49.00;;;;;1.75;89.01;98734.38;6310839;20;2854487;-45
2023/11/29 09:06:22;;;;;;;;;51.50;43.00;;;;;1.90;88.47;98747.00;6277972;20;2864915;-48
2023/11/29 09:08:51;;;;;;;;;59.00;44.00;;;;;1.68;89.02;98744.34;6279525;20;2861795;-49
2023/11/29 09:11:21;;;;;;;;;65.67;43.00;;;;;1.82;88.54;98743.81;6278717;20;3625310;-53
2023/11/29 09:13:51;;;;;;;;;57.33;45.00;;;;;1.92;88.15;98747.78;6312849;20;2861815;-56
2023/11/29 09:16:20;;;;;;;;;61.00;44.00;;;;;1.74;88.96;98748.56;6309792;20;2865901;-51
2023/11/29 09:18:49;;;;;;;;;54.50;46.00;;;;;2.09;87.76;98744.44;6286202;20;2839865;-55
2023/11/29 09:21:18;;;;;;;;;63.00;50.50;;;;;2.30;87.67;98742.66;6285249;20;2857569;-43
2023/11/29 09:23:53;;;;;;;;;52.67;42.00;;;;;2.80;84.68;98750.16;6286535;20;3619065;-43
2023/11/29 09:26:22;;;;;;;;;55.00;43.00;;;;;2.88;82.63;98739.22;6311768;20;2588843;-44
2023/11/29 09:28:51;;;;;;;;;43.50;37.00;;;;;2.34;82.01;98746.91;6314062;20;2859654;-45
2023/11/29 09:31:21;;;;;;;;;51.00;42.00;;;;;2.47;82.03;98749.00;6285511;20;2873670;-44
2023/11/29 09:33:50;;;;;;;;;43.00;35.00;;;;;2.63;81.00;98745.63;6315620;20;2867977;-44
2023/11/29 09:36:20;;;;;;;;;49.33;39.33;;;;;2.75;80.83;98752.16;6283172;20;3614836;-43
2023/11/29 09:38:48;;;;;;;;;50.50;41.50;;;;;2.66;82.06;98752.56;6311671;20;2847305;-43
2023/11/29 09:41:18;;;;;;;;;41.00;30.50;;;;;2.68;80.84;98748.03;6279714;20;2851333;-44
2023/11/29 09:43:48;;;;;;;;;52.00;41.00;;;;;2.63;81.59;98755.34;6277059;20;2852399;-44
2023/11/29 09:46:18;;;;;;;;;33.50;32.50;;;;;2.23;84.64;98757.06;6275917;20;2837887;-44
2023/11/29 09:48:47;;;;;;;;;49.00;39.00;;;;;2.64;82.25;98757.94;6278823;20;2867986;-44
2023/11/29 09:51:17;;;;;;;;;50.00;42.00;;;;;2.65;82.84;98758.78;6282435;20;2863864;-43
2023/11/29 09:53:46;;;;;;;;;43.50;36.00;;;;;2.82;80.72;98766.00;6284049;20;2858641;-43
2023/11/29 09:56:14;;;;;;;;;41.50;32.50;;;;;2.25;82.66;98763.16;6277976;20;2500278;-43
2023/11/29 09:58:44;;;;;;;;;39.50;32.00;;;;;2.29;79.31;98764.78;6285517;20;2855522;-45
2023/11/29 10:01:13;;;;;;;;;46.50;39.00;;;;;2.21;82.38;98772.16;6284902;20;2864934;-43
2023/11/29 10:03:43;;;;;;;;;58.00;42.67;;;;;2.10;84.28;98777.06;6282693;20;2859673;-43
2023/11/29 10:06:12;;;;;;;;;52.00;44.00;;;;;2.26;83.85;98782.56;6309910;20;2856621;-44
2023/11/29 10:08:41;;;;;;;;;47.00;39.00;;;;;2.35;81.37;98776.91;6280984;20;2865918;-44
2023/11/29 10:11:12;;;;;;;;;34.00;30.00;;;;;1.61;82.27;98779.06;6283465;20;2849271;-44
2023/11/29 10:13:42;;;;;;;;;43.00;35.00;;;;;1.40;83.01;98775.50;6277205;20;2500364;-43
2023/11/29 10:16:11;;;;;;;;;41.50;31.00;;;;;1.39;83.01;98771.09;6283694;20;2866923;-46
2023/11/29 10:18:39;;;;;;;;;34.50;28.50;;;;;2.44;81.50;98784.44;6283152;20;2500288;-43
2023/11/29 10:21:08;;;;;;;;;35.00;28.00;;;;;1.64;81.18;98786.88;6281151;20;2851428;-42
2023/11/29 10:23:40;;;;;;;;;40.00;30.50;;;;;1.38;82.25;98780.81;6281108;20;2860721;-42
2023/11/29 10:26:10;;;;;;;;;47.33;33.33;;;;;1.33;82.58;98782.78;6278975;20;2881731;-44
2023/11/29 10:28:41;;;;;;;;;30.00;27.00;;;;;1.54;80.33;98781.09;6316468;20;2850268;-43
2023/11/29 10:31:10;;;;;;;;;46.00;35.50;;;;;2.10;80.68;98785.84;6285763;20;2846190;-42
2023/11/29 10:33:40;;;;;;;;;50.50;44.00;;;;;2.88;79.53;98789.56;6280444;20;2844009;-43
2023/11/29 10:36:10;;;;;;;;;41.33;32.67;;;;;3.06;81.07;98791.41;6280977;20;2864964;-44
2023/11/29 10:39:00;;;;;;;;;44.50;35.00;;;;;2.81;78.89;98791.63;6311742;20;2850289;-43
2023/11/29 10:41:43;;;;;;;;;36.50;31.00;;;;;3.20;77.05;98790.75;6282981;20;2848281;-43
2023/11/29 10:44:14;;;;;;;;;39.50;37.00;;;;;3.37;77.81;98794.41;6282352;20;2861735;-42
2023/11/29 10:46:44;;;;;;;;;32.00;31.50;;;;;3.96;75.68;98794.22;6281488;20;2836892;-43
2023/11/29 10:49:29;;;;;;;;;42.00;32.67;;;;;3.31;75.55;98795.56;6284465;20;2873283;-44
2023/11/29 10:51:58;;;;;;;;;31.50;30.00;;;;;2.86;77.61;98800.22;6310952;20;2500393;-42
2023/11/29 10:54:26;;;;;;;;;35.00;25.50;;;;;2.96;77.33;98797.19;6280337;20;2860735;-43
2023/11/29 10:57:10;;;;;;;;;42.50;33.00;;;;;3.20;78.26;98796.06;6280166;20;2855572;-44
2023/11/29 10:59:58;;;;;;;;;32.50;29.00;;;;;3.07;76.47;98798.41;6280624;20;2844122;-43
2023/11/29 11:02:30;;;;;;;;;42.00;36.50;;;;;3.59;76.64;98802.25;6280997;20;2866969;-43
2023/11/29 11:05:05;;;;;;;;;41.67;37.00;;;;;3.67;72.20;98795.63;6284541;20;2858683;-42
2023/11/29 11:07:46;;;;;;;;;38.00;33.00;;;;;3.46;71.97;98791.34;6311576;20;2850750;-42
2023/11/29 11:10:24;;;;;;;;;41.33;29.67;;;;;3.37;69.31;98789.09;6283636;20;2867040;-46
2023/11/29 11:12:58;;;;;;;;;43.00;38.67;;;;;2.76;75.86;98788.31;6309450;20;2872174;-43
2023/11/29 11:15:29;;;;;;;;;41.67;35.33;;;;;3.01;76.34;98801.34;6311760;20;3617964;-43
2023/11/29 11:18:01;;;;;;;;;43.00;38.33;;;;;2.69;77.19;98792.19;6313232;20;2872141;-42
2023/11/29 11:20:52;;;;;;;;;50.67;40.00;;;;;2.85;78.34;98795.88;6312990;20;3611723;-43